sensor_id;sensor_type;location;lat;lon;timestamp;pressure;altitude;pressure_sealevel;temperature;humidity
61324;BME280;47203;48.428;11.974;2023-06-04T00:00:50;96810.66;;;22.35;32.52
61324;BME280;47203;48.428;11.974;2023-06-04T00:02:55;96805.19;;;22.31;32.53
61324;BME280;47203;48.428;11.974;2023-06-04T00:05:00;96802.38;;;22.28;32.46
61324;BME280;47203;48.428;11.974;2023-06-04T00:07:08;96805.66;;;22.21;32.97
61324;BME280;47203;48.428;11.974;2023-06-04T00:09:13;96803.66;;;22.18;32.50
61324;BME280;47203;48.428;11.974;2023-06-04T00:11:18;96802.41;;;22.16;32.76
61324;BME280;47203;48.428;11.974;2023-06-04T00:13:23;96794.59;;;22.10;32.90
61324;BME280;47203;48.428;11.974;2023-06-04T00:15:28;96797.19;;;22.07;32.97
61324;BME280;47203;48.428;11.974;2023-06-04T00:17:33;96798.53;;;22.01;32.55
61324;BME280;47203;48.428;11.974;2023-06-04T00:19:39;96800.31;;;21.96;32.70
61324;BME280;47203;48.428;11.974;2023-06-04T00:21:45;96796.31;;;21.90;33.04
61324;BME280;47203;48.428;11.974;2023-06-04T00:23:53;96794.94;;;21.84;32.90
61324;BME280;47203;48.428;11.974;2023-06-04T00:25:58;96793.28;;;21.79;32.98
61324;BME280;47203;48.428;11.974;2023-06-04T00:28:03;96789.28;;;21.73;32.86
61324;BME280;47203;48.428;11.974;2023-06-04T00:30:09;96792.16;;;21.68;33.19
61324;BME280;47203;48.428;11.974;2023-06-04T00:32:14;96795.06;;;21.63;32.99
61324;BME280;47203;48.428;11.974;2023-06-04T00:34:20;96794.94;;;21.59;32.97
61324;BME280;47203;48.428;11.974;2023-06-04T00:36:25;96784.91;;;21.56;33.16
61324;BME280;47203;48.428;11.974;2023-06-04T00:38:30;96789.38;;;21.52;33.21
61324;BME280;47203;48.428;11.974;2023-06-04T00:40:37;96793.47;;;21.50;33.40
61324;BME280;47203;48.428;11.974;2023-06-04T00:42:44;96790.00;;;21.49;33.67
61324;BME280;47203;48.428;11.974;2023-06-04T00:44:51;96786.88;;;21.47;33.33
61324;BME280;47203;48.428;11.974;2023-06-04T00:46:59;96781.41;;;21.43;33.09
61324;BME280;47203;48.428;11.974;2023-06-04T00:49:05;96793.59;;;21.41;33.33
61324;BME280;47203;48.428;11.974;2023-06-04T00:51:10;96793.13;;;21.39;33.58
61324;BME280;47203;48.428;11.974;2023-06-04T00:53:16;96784.97;;;21.35;33.78
61324;BME280;47203;48.428;11.974;2023-06-04T00:55:21;96784.19;;;21.35;33.72
61324;BME280;47203;48.428;11.974;2023-06-04T00:57:29;96788.66;;;21.31;33.72
61324;BME280;47203;48.428;11.974;2023-06-04T00:59:36;96789.00;;;21.29;33.46
61324;BME280;47203;48.428;11.974;2023-06-04T01:01:49;96786.97;;;21.26;33.83
61324;BME280;47203;48.428;11.974;2023-06-04T01:03:58;96791.88;;;21.24;34.05
61324;BME280;47203;48.428;11.974;2023-06-04T01:06:13;96789.09;;;21.20;34.03
61324;BME280;47203;48.428;11.974;2023-06-04T01:08:23;96794.78;;;21.19;34.12
61324;BME280;47203;48.428;11.974;2023-06-04T01:10:28;96796.97;;;21.17;34.07
61324;BME280;47203;48.428;11.974;2023-06-04T01:12:39;96792.63;;;21.12;34.02
61324;BME280;47203;48.428;11.974;2023-06-04T01:14:44;96790.28;;;21.10;34.04
61324;BME280;47203;48.428;11.974;2023-06-04T01:16:52;96787.47;;;21.07;34.01
61324;BME280;47203;48.428;11.974;2023-06-04T01:19:07;96795.06;;;21.05;34.28
61324;BME280;47203;48.428;11.974;2023-06-04T01:21:23;96792.72;;;21.03;34.22
61324;BME280;47203;48.428;11.974;2023-06-04T01:23:34;96795.28;;;21.00;34.01
61324;BME280;47203;48.428;11.974;2023-06-04T01:25:45;96782.88;;;20.95;34.05
61324;BME280;47203;48.428;11.974;2023-06-04T01:27:55;96799.72;;;20.96;34.69
61324;BME280;47203;48.428;11.974;2023-06-04T01:30:04;96793.91;;;20.93;34.10
61324;BME280;47203;48.428;11.974;2023-06-04T01:32:09;96793.13;;;20.93;34.33
61324;BME280;47203;48.428;11.974;2023-06-04T01:34:14;96790.31;;;20.89;34.40
61324;BME280;47203;48.428;11.974;2023-06-04T01:36:19;96795.56;;;20.86;34.35
61324;BME280;47203;48.428;11.974;2023-06-04T01:38:25;96792.13;;;20.85;34.46
61324;BME280;47203;48.428;11.974;2023-06-04T01:40:30;96793.06;;;20.81;34.53
61324;BME280;47203;48.428;11.974;2023-06-04T01:42:35;96803.47;;;20.82;34.52
61324;BME280;47203;48.428;11.974;2023-06-04T01:44:42;96794.53;;;20.78;34.74
61324;BME280;47203;48.428;11.974;2023-06-04T01:46:48;96803.34;;;20.79;34.42
61324;BME280;47203;48.428;11.974;2023-06-04T01:48:53;96805.91;;;20.75;34.71
61324;BME280;47203;48.428;11.974;2023-06-04T01:50:58;96801.50;;;20.70;34.58
61324;BME280;47203;48.428;11.974;2023-06-04T01:53:04;96808.63;;;20.66;34.51
61324;BME280;47203;48.428;11.974;2023-06-04T01:55:10;96801.53;;;20.62;34.55
61324;BME280;47203;48.428;11.974;2023-06-04T01:57:16;96802.19;;;20.58;34.86
61324;BME280;47203;48.428;11.974;2023-06-04T01:59:21;96803.97;;;20.54;34.65
61324;BME280;47203;48.428;11.974;2023-06-04T02:01:29;96808.41;;;20.50;34.91
61324;BME280;47203;48.428;11.974;2023-06-04T02:03:35;96814.41;;;20.47;34.94
61324;BME280;47203;48.428;11.974;2023-06-04T02:05:42;96819.63;;;20.44;35.19
61324;BME280;47203;48.428;11.974;2023-06-04T02:07:48;96813.34;;;20.39;35.15
61324;BME280;47203;48.428;11.974;2023-06-04T02:09:53;96808.34;;;20.38;35.22
61324;BME280;47203;48.428;11.974;2023-06-04T02:11:58;96812.75;;;20.34;35.32
61324;BME280;47203;48.428;11.974;2023-06-04T02:14:04;96820.34;;;20.32;35.13
61324;BME280;47203;48.428;11.974;2023-06-04T02:16:09;96821.75;;;20.29;35.23
61324;BME280;47203;48.428;11.974;2023-06-04T02:18:19;96807.34;;;20.21;35.20
61324;BME280;47203;48.428;11.974;2023-06-04T02:20:24;96815.69;;;20.20;35.00
61324;BME280;47203;48.428;11.974;2023-06-04T02:22:29;96811.78;;;20.17;35.22
61324;BME280;47203;48.428;11.974;2023-06-04T02:24:34;96814.31;;;20.14;35.30
61324;BME280;47203;48.428;11.974;2023-06-04T02:26:41;96815.44;;;20.13;35.34
61324;BME280;47203;48.428;11.974;2023-06-04T02:28:46;96817.16;;;20.09;35.19
61324;BME280;47203;48.428;11.974;2023-06-04T02:30:51;96816.41;;;20.08;35.36
61324;BME280;47203;48.428;11.974;2023-06-04T02:32:56;96815.16;;;20.05;35.69
61324;BME280;47203;48.428;11.974;2023-06-04T02:35:06;96813.91;;;20.03;35.77
61324;BME280;47203;48.428;11.974;2023-06-04T02:37:11;96813.78;;;19.99;35.58
61324;BME280;47203;48.428;11.974;2023-06-04T02:39:17;96821.78;;;19.99;35.66
61324;BME280;47203;48.428;11.974;2023-06-04T02:41:23;96818.31;;;19.99;35.71
61324;BME280;47203;48.428;11.974;2023-06-04T02:43:28;96825.13;;;19.96;35.54
61324;BME280;47203;48.428;11.974;2023-06-04T02:45:33;96815.38;;;19.92;35.68
61324;BME280;47203;48.428;11.974;2023-06-04T02:47:38;96823.72;;;19.90;35.67
61324;BME280;47203;48.428;11.974;2023-06-04T02:49:43;96820.91;;;19.86;35.78
61324;BME280;47203;48.428;11.974;2023-06-04T02:51:51;96825.66;;;19.81;35.82
61324;BME280;47203;48.428;11.974;2023-06-04T02:53:57;96825.97;;;19.79;35.68
61324;BME280;47203;48.428;11.974;2023-06-04T02:56:02;96820.47;;;19.76;35.63
61324;BME280;47203;48.428;11.974;2023-06-04T02:58:08;96823.75;;;19.73;35.88
61324;BME280;47203;48.428;11.974;2023-06-04T03:00:14;96825.53;;;19.68;35.80
61324;BME280;47203;48.428;11.974;2023-06-04T03:02:20;96826.13;;;19.65;35.80
61324;BME280;47203;48.428;11.974;2023-06-04T03:04:25;96824.59;;;19.64;36.17
61324;BME280;47203;48.428;11.974;2023-06-04T03:06:36;96827.91;;;19.61;35.93
61324;BME280;47203;48.428;11.974;2023-06-04T03:08:45;96826.50;;;19.55;36.43
61324;BME280;47203;48.428;11.974;2023-06-04T03:10:50;96832.63;;;19.56;36.05
61324;BME280;47203;48.428;11.974;2023-06-04T03:12:55;96832.78;;;19.50;36.09
61324;BME280;47203;48.428;11.974;2023-06-04T03:15:00;96836.09;;;19.47;36.25
61324;BME280;47203;48.428;11.974;2023-06-04T03:17:06;96836.09;;;19.47;35.97
61324;BME280;47203;48.428;11.974;2023-06-04T03:19:12;96842.84;;;19.45;36.37
61324;BME280;47203;48.428;11.974;2023-06-04T03:21:19;96848.84;;;19.42;36.16
61324;BME280;47203;48.428;11.974;2023-06-04T03:23:24;96840.22;;;19.36;36.05
61324;BME280;47203;48.428;11.974;2023-06-04T03:25:32;96844.00;;;19.35;36.44
61324;BME280;47203;48.428;11.974;2023-06-04T03:27:37;96848.84;;;19.33;36.53
61324;BME280;47203;48.428;11.974;2023-06-04T03:29:42;96846.50;;;19.31;36.32
61324;BME280;47203;48.428;11.974;2023-06-04T03:31:48;96849.50;;;19.30;36.31
61324;BME280;47203;48.428;11.974;2023-06-04T03:33:55;96847.47;;;19.27;36.45
61324;BME280;47203;48.428;11.974;2023-06-04T03:36:00;96855.34;;;19.23;36.34
61324;BME280;47203;48.428;11.974;2023-06-04T03:38:05;96856.75;;;19.21;36.78
61324;BME280;47203;48.428;11.974;2023-06-04T03:40:11;96864.25;;;19.18;36.58
61324;BME280;47203;48.428;11.974;2023-06-04T03:42:21;96866.16;;;19.18;36.62
61324;BME280;47203;48.428;11.974;2023-06-04T03:44:27;96861.47;;;19.15;36.34
61324;BME280;47203;48.428;11.974;2023-06-04T03:46:32;96851.09;;;19.13;36.73
61324;BME280;47203;48.428;11.974;2023-06-04T03:48:38;96859.09;;;19.13;36.44
61324;BME280;47203;48.428;11.974;2023-06-04T03:50:43;96857.84;;;19.11;36.85
61324;BME280;47203;48.428;11.974;2023-06-04T03:52:50;96861.91;;;19.08;36.63
61324;BME280;47203;48.428;11.974;2023-06-04T03:54:55;96860.38;;;19.07;36.52
61324;BME280;47203;48.428;11.974;2023-06-04T03:57:02;96858.34;;;19.04;36.57
61324;BME280;47203;48.428;11.974;2023-06-04T03:59:10;96858.63;;;19.02;36.97
61324;BME280;47203;48.428;11.974;2023-06-04T04:01:16;96858.94;;;19.01;36.60
61324;BME280;47203;48.428;11.974;2023-06-04T04:03:21;96870.72;;;19.00;36.99
61324;BME280;47203;48.428;11.974;2023-06-04T04:05:28;96872.59;;;18.99;36.66
61324;BME280;47203;48.428;11.974;2023-06-04T04:07:33;96864.59;;;18.99;36.95
61324;BME280;47203;48.428;11.974;2023-06-04T04:09:39;96873.09;;;19.01;36.86
61324;BME280;47203;48.428;11.974;2023-06-04T04:11:44;96870.41;;;19.01;36.98
61324;BME280;47203;48.428;11.974;2023-06-04T04:13:49;96866.94;;;19.01;36.91
61324;BME280;47203;48.428;11.974;2023-06-04T04:16:00;96866.19;;;19.00;37.24
61324;BME280;47203;48.428;11.974;2023-06-04T04:18:05;96874.94;;;19.01;37.13
61324;BME280;47203;48.428;11.974;2023-06-04T04:20:14;96866.50;;;18.99;37.33
61324;BME280;47203;48.428;11.974;2023-06-04T04:22:29;96871.06;;;18.98;37.39
61324;BME280;47203;48.428;11.974;2023-06-04T04:24:35;96855.06;;;18.90;37.10
61324;BME280;47203;48.428;11.974;2023-06-04T04:26:41;96870.09;;;18.94;37.69
61324;BME280;47203;48.428;11.974;2023-06-04T04:28:48;96873.22;;;18.96;37.63
61324;BME280;47203;48.428;11.974;2023-06-04T04:30:55;96872.78;;;18.94;37.43
61324;BME280;47203;48.428;11.974;2023-06-04T04:33:04;96878.88;;;18.95;37.47
61324;BME280;47203;48.428;11.974;2023-06-04T04:35:14;96879.38;;;18.88;37.40
61324;BME280;47203;48.428;11.974;2023-06-04T04:37:22;96878.25;;;18.89;37.50
61324;BME280;47203;48.428;11.974;2023-06-04T04:39:30;96882.94;;;18.92;37.55
61324;BME280;47203;48.428;11.974;2023-06-04T04:41:36;96885.78;;;18.96;37.61
61324;BME280;47203;48.428;11.974;2023-06-04T04:43:42;96890.03;;;18.97;37.85
61324;BME280;47203;48.428;11.974;2023-06-04T04:45:57;96890.03;;;18.97;37.61
61324;BME280;47203;48.428;11.974;2023-06-04T04:48:05;96890.63;;;19.02;38.02
61324;BME280;47203;48.428;11.974;2023-06-04T04:50:10;96890.03;;;19.06;38.00
61324;BME280;47203;48.428;11.974;2023-06-04T04:52:15;96894.75;;;19.09;37.72
61324;BME280;47203;48.428;11.974;2023-06-04T04:54:21;96890.63;;;19.11;38.16
61324;BME280;47203;48.428;11.974;2023-06-04T04:56:26;96895.38;;;19.14;37.92
61324;BME280;47203;48.428;11.974;2023-06-04T04:58:32;96898.94;;;19.18;38.03
61324;BME280;47203;48.428;11.974;2023-06-04T05:00:37;96901.28;;;19.20;37.69
61324;BME280;47203;48.428;11.974;2023-06-04T05:02:42;96897.53;;;19.21;37.77
61324;BME280;47203;48.428;11.974;2023-06-04T05:04:50;96904.59;;;19.26;38.21
61324;BME280;47203;48.428;11.974;2023-06-04T05:06:55;96904.44;;;19.31;38.00
61324;BME280;47203;48.428;11.974;2023-06-04T05:09:00;96910.22;;;19.33;38.20
61324;BME280;47203;48.428;11.974;2023-06-04T05:11:05;96911.94;;;19.38;38.02
61324;BME280;47203;48.428;11.974;2023-06-04T05:13:12;96915.56;;;19.42;38.17
61324;BME280;47203;48.428;11.974;2023-06-04T05:15:25;96911.16;;;19.46;38.24
61324;BME280;47203;48.428;11.974;2023-06-04T05:17:33;96915.09;;;19.48;38.20
61324;BME280;47203;48.428;11.974;2023-06-04T05:19:43;96915.22;;;19.52;37.72
61324;BME280;47203;48.428;11.974;2023-06-04T05:21:52;96912.72;;;19.56;37.83
61324;BME280;47203;48.428;11.974;2023-06-04T05:23:57;96920.56;;;19.61;37.87
61324;BME280;47203;48.428;11.974;2023-06-04T05:26:06;96915.69;;;19.63;37.54
61324;BME280;47203;48.428;11.974;2023-06-04T05:28:12;96920.72;;;19.64;37.64
61324;BME280;47203;48.428;11.974;2023-06-04T05:30:17;96918.66;;;19.70;37.57
61324;BME280;47203;48.428;11.974;2023-06-04T05:32:22;96922.25;;;19.74;37.19
61324;BME280;47203;48.428;11.974;2023-06-04T05:34:31;96925.88;;;19.78;37.56
61324;BME280;47203;48.428;11.974;2023-06-04T05:36:39;96923.69;;;19.80;37.17
61324;BME280;47203;48.428;11.974;2023-06-04T05:38:46;96920.06;;;19.85;37.28
61324;BME280;47203;48.428;11.974;2023-06-04T05:41:05;96927.44;;;19.88;37.32
61324;BME280;47203;48.428;11.974;2023-06-04T05:43:12;96936.38;;;19.92;37.42
61324;BME280;47203;48.428;11.974;2023-06-04T05:45:18;96934.97;;;19.95;37.10
61324;BME280;47203;48.428;11.974;2023-06-04T05:47:23;96932.41;;;19.98;36.99
61324;BME280;47203;48.428;11.974;2023-06-04T05:49:28;96931.78;;;20.01;37.08
61324;BME280;47203;48.428;11.974;2023-06-04T05:51:35;96924.25;;;20.03;36.77
61324;BME280;47203;48.428;11.974;2023-06-04T05:53:40;96930.03;;;20.05;36.98
61324;BME280;47203;48.428;11.974;2023-06-04T05:55:48;96932.06;;;20.09;36.58
61324;BME280;47203;48.428;11.974;2023-06-04T05:57:53;96933.78;;;20.13;36.87
61324;BME280;47203;48.428;11.974;2023-06-04T05:59:58;96927.78;;;20.16;36.74
61324;BME280;47203;48.428;11.974;2023-06-04T06:02:03;96932.50;;;20.19;36.75
61324;BME280;47203;48.428;11.974;2023-06-04T06:04:10;96934.53;;;20.22;36.21
61324;BME280;47203;48.428;11.974;2023-06-04T06:06:16;96943.00;;;20.25;36.47
61324;BME280;47203;48.428;11.974;2023-06-04T06:08:23;96943.59;;;20.30;36.53
61324;BME280;47203;48.428;11.974;2023-06-04T06:10:29;96938.72;;;20.32;36.39
61324;BME280;47203;48.428;11.974;2023-06-04T06:12:36;96940.28;;;20.33;35.88
61324;BME280;47203;48.428;11.974;2023-06-04T06:14:42;96942.00;;;20.38;36.08
61324;BME280;47203;48.428;11.974;2023-06-04T06:16:47;96950.16;;;20.42;36.13
61324;BME280;47203;48.428;11.974;2023-06-04T06:18:52;96948.72;;;20.44;36.37
61324;BME280;47203;48.428;11.974;2023-06-04T06:20:59;96944.63;;;20.47;36.35
61324;BME280;47203;48.428;11.974;2023-06-04T06:23:06;96950.13;;;20.50;36.06
61324;BME280;47203;48.428;11.974;2023-06-04T06:25:15;96947.13;;;20.52;36.07
61324;BME280;47203;48.428;11.974;2023-06-04T06:27:35;96951.00;;;20.54;36.01
61324;BME280;47203;48.428;11.974;2023-06-04T06:29:40;96956.53;;;20.58;35.72
61324;BME280;47203;48.428;11.974;2023-06-04T06:31:45;96952.41;;;20.61;35.88
61324;BME280;47203;48.428;11.974;2023-06-04T06:33:50;96953.63;;;20.63;35.88
61324;BME280;47203;48.428;11.974;2023-06-04T06:35:55;96953.81;;;20.67;35.99
61324;BME280;47203;48.428;11.974;2023-06-04T06:38:02;96960.41;;;20.69;36.08
61324;BME280;47203;48.428;11.974;2023-06-04T06:40:08;96953.31;;;20.73;36.06
61324;BME280;47203;48.428;11.974;2023-06-04T06:42:13;96955.34;;;20.77;35.89
61324;BME280;47203;48.428;11.974;2023-06-04T06:44:23;96958.13;;;20.80;35.56
61324;BME280;47203;48.428;11.974;2023-06-04T06:46:28;96966.16;;;20.80;35.71
61324;BME280;47203;48.428;11.974;2023-06-04T06:48:33;96971.19;;;20.82;35.41
61324;BME280;47203;48.428;11.974;2023-06-04T06:50:38;96963.31;;;20.85;35.61
61324;BME280;47203;48.428;11.974;2023-06-04T06:52:43;96963.75;;;20.87;35.22
61324;BME280;47203;48.428;11.974;2023-06-04T06:54:48;96959.66;;;20.90;35.19
61324;BME280;47203;48.428;11.974;2023-06-04T06:56:54;96962.78;;;20.92;35.27
61324;BME280;47203;48.428;11.974;2023-06-04T06:58:59;96967.47;;;20.95;35.20
61324;BME280;47203;48.428;11.974;2023-06-04T07:01:07;96966.38;;;20.96;35.12
61324;BME280;47203;48.428;11.974;2023-06-04T07:03:12;96961.81;;;20.97;35.26
61324;BME280;47203;48.428;11.974;2023-06-04T07:05:17;96963.03;;;20.99;35.29
61324;BME280;47203;48.428;11.974;2023-06-04T07:07:22;96970.41;;;21.02;34.93
61324;BME280;47203;48.428;11.974;2023-06-04T07:09:28;96957.84;;;21.03;35.33
61324;BME280;47203;48.428;11.974;2023-06-04T07:11:33;96962.22;;;21.07;34.83
61324;BME280;47203;48.428;11.974;2023-06-04T07:13:38;96959.53;;;21.07;34.87
61324;BME280;47203;48.428;11.974;2023-06-04T07:15:43;96965.00;;;21.11;34.98
61324;BME280;47203;48.428;11.974;2023-06-04T07:17:51;96966.25;;;21.14;35.17
61324;BME280;47203;48.428;11.974;2023-06-04T07:19:56;96967.50;;;21.16;35.18
61324;BME280;47203;48.428;11.974;2023-06-04T07:22:02;96969.50;;;21.19;35.09
61324;BME280;47203;48.428;11.974;2023-06-04T07:24:07;96968.84;;;21.22;35.39
61324;BME280;47203;48.428;11.974;2023-06-04T07:26:12;96965.84;;;21.24;35.11
61324;BME280;47203;48.428;11.974;2023-06-04T07:28:19;96957.97;;;21.27;34.66
61324;BME280;47203;48.428;11.974;2023-06-04T07:30:24;96961.84;;;21.30;34.81
61324;BME280;47203;48.428;11.974;2023-06-04T07:32:29;96969.22;;;21.33;35.13
61324;BME280;47203;48.428;11.974;2023-06-04T07:34:37;96961.69;;;21.35;35.26
61324;BME280;47203;48.428;11.974;2023-06-04T07:36:42;96959.09;;;21.39;34.90
61324;BME280;47203;48.428;11.974;2023-06-04T07:38:47;96957.69;;;21.41;34.92
61324;BME280;47203;48.428;11.974;2023-06-04T07:40:52;96961.59;;;21.44;34.94
61324;BME280;47203;48.428;11.974;2023-06-04T07:42:57;96948.31;;;21.48;35.20
61324;BME280;47203;48.428;11.974;2023-06-04T07:45:03;96955.72;;;21.51;35.09
61324;BME280;47203;48.428;11.974;2023-06-04T07:47:08;96949.72;;;21.54;34.93
61324;BME280;47203;48.428;11.974;2023-06-04T07:49:13;96956.31;;;21.56;35.05
61324;BME280;47203;48.428;11.974;2023-06-04T07:51:21;96946.16;;;21.62;35.11
61324;BME280;47203;48.428;11.974;2023-06-04T07:53:27;96950.09;;;21.65;34.97
61324;BME280;47203;48.428;11.974;2023-06-04T07:55:32;96951.00;;;21.69;35.05
61324;BME280;47203;48.428;11.974;2023-06-04T07:57:38;96958.81;;;21.74;35.41
61324;BME280;47203;48.428;11.974;2023-06-04T07:59:43;96955.47;;;21.77;35.24
61324;BME280;47203;48.428;11.974;2023-06-04T08:01:49;96954.38;;;21.78;34.61
61324;BME280;47203;48.428;11.974;2023-06-04T08:03:56;96956.38;;;21.81;34.62
61324;BME280;47203;48.428;11.974;2023-06-04T08:06:02;96962.63;;;21.85;34.79
61324;BME280;47203;48.428;11.974;2023-06-04T08:08:10;96958.53;;;21.88;34.60
61324;BME280;47203;48.428;11.974;2023-06-04T08:10:16;96960.53;;;21.91;34.97
61324;BME280;47203;48.428;11.974;2023-06-04T08:12:21;96958.75;;;21.95;34.89
61324;BME280;47203;48.428;11.974;2023-06-04T08:14:26;96959.66;;;21.99;35.17
61324;BME280;47203;48.428;11.974;2023-06-04T08:16:34;96964.03;;;22.04;34.72
61324;BME280;47203;48.428;11.974;2023-06-04T08:18:39;96953.41;;;22.07;34.58
61324;BME280;47203;48.428;11.974;2023-06-04T08:20:44;96969.28;;;22.12;34.71
61324;BME280;47203;48.428;11.974;2023-06-04T08:22:49;96961.34;;;22.16;34.66
61324;BME280;47203;48.428;11.974;2023-06-04T08:24:57;96957.66;;;22.21;34.47
61324;BME280;47203;48.428;11.974;2023-06-04T08:27:02;96954.78;;;22.26;34.83
61324;BME280;47203;48.428;11.974;2023-06-04T08:29:07;96959.91;;;22.31;35.14
61324;BME280;47203;48.428;11.974;2023-06-04T08:31:12;96955.13;;;22.37;35.35
61324;BME280;47203;48.428;11.974;2023-06-04T08:33:17;96951.13;;;22.43;35.25
61324;BME280;47203;48.428;11.974;2023-06-04T08:35:22;96951.66;;;22.48;35.19
61324;BME280;47203;48.428;11.974;2023-06-04T08:37:28;96960.72;;;22.56;35.41
61324;BME280;47203;48.428;11.974;2023-06-04T08:39:33;96954.78;;;22.63;35.63
61324;BME280;47203;48.428;11.974;2023-06-04T08:41:43;96957.69;;;22.70;35.73
61324;BME280;47203;48.428;11.974;2023-06-04T08:43:55;96958.66;;;22.78;35.30
61324;BME280;47203;48.428;11.974;2023-06-04T08:46:05;96955.09;;;22.86;35.20
61324;BME280;47203;48.428;11.974;2023-06-04T08:48:10;96958.31;;;22.92;35.26
61324;BME280;47203;48.428;11.974;2023-06-04T08:50:18;96958.63;;;23.02;35.02
61324;BME280;47203;48.428;11.974;2023-06-04T08:52:25;96962.00;;;23.12;35.13
61324;BME280;47203;48.428;11.974;2023-06-04T08:54:32;96955.69;;;23.20;35.15
61324;BME280;47203;48.428;11.974;2023-06-04T08:56:37;96955.13;;;23.27;35.63
61324;BME280;47203;48.428;11.974;2023-06-04T08:58:45;96962.34;;;23.39;35.17
61324;BME280;47203;48.428;11.974;2023-06-04T09:00:53;96958.41;;;23.48;35.46
61324;BME280;47203;48.428;11.974;2023-06-04T09:03:01;96953.31;;;23.59;35.23
61324;BME280;47203;48.428;11.974;2023-06-04T09:05:07;96953.59;;;23.70;35.10
61324;BME280;47203;48.428;11.974;2023-06-04T09:07:13;96965.03;;;23.83;35.07
61324;BME280;47203;48.428;11.974;2023-06-04T09:09:19;96961.88;;;23.93;34.66
61324;BME280;47203;48.428;11.974;2023-06-04T09:11:27;96960.69;;;24.07;34.40
61324;BME280;47203;48.428;11.974;2023-06-04T09:13:38;96964.41;;;24.18;34.20
61324;BME280;47203;48.428;11.974;2023-06-04T09:15:58;96960.06;;;24.29;34.16
61324;BME280;47203;48.428;11.974;2023-06-04T09:18:03;96956.50;;;24.41;34.03
61324;BME280;47203;48.428;11.974;2023-06-04T09:20:18;96968.72;;;24.54;33.46
61324;BME280;47203;48.428;11.974;2023-06-04T09:22:32;96958.66;;;24.67;33.81
61324;BME280;47203;48.428;11.974;2023-06-04T09:24:41;96960.91;;;24.81;33.76
61324;BME280;47203;48.428;11.974;2023-06-04T09:26:49;96961.97;;;24.96;33.46
61324;BME280;47203;48.428;11.974;2023-06-04T09:28:54;96960.34;;;25.11;33.25
61324;BME280;47203;48.428;11.974;2023-06-04T09:31:02;96957.53;;;25.23;33.78
61324;BME280;47203;48.428;11.974;2023-06-04T09:33:08;96963.25;;;25.38;33.01
61324;BME280;47203;48.428;11.974;2023-06-04T09:35:15;96958.81;;;25.49;33.04
61324;BME280;47203;48.428;11.974;2023-06-04T09:37:20;96969.09;;;25.63;33.21
61324;BME280;47203;48.428;11.974;2023-06-04T09:39:26;96960.47;;;25.77;32.47
61324;BME280;47203;48.428;11.974;2023-06-04T09:41:32;96961.09;;;25.90;31.99
61324;BME280;47203;48.428;11.974;2023-06-04T09:43:37;96957.47;;;26.02;31.78
61324;BME280;47203;48.428;11.974;2023-06-04T09:45:42;96957.22;;;26.10;31.57
61324;BME280;47203;48.428;11.974;2023-06-04T09:47:51;96954.28;;;26.19;31.06
61324;BME280;47203;48.428;11.974;2023-06-04T09:49:56;96956.38;;;26.29;31.54
61324;BME280;47203;48.428;11.974;2023-06-04T09:52:01;96958.88;;;26.42;31.76
61324;BME280;47203;48.428;11.974;2023-06-04T09:54:06;96950.16;;;26.52;31.53
61324;BME280;47203;48.428;11.974;2023-06-04T09:56:11;96949.19;;;26.64;31.84
61324;BME280;47203;48.428;11.974;2023-06-04T09:58:16;96942.81;;;26.76;31.88
61324;BME280;47203;48.428;11.974;2023-06-04T10:00:23;96942.94;;;26.87;31.35
61324;BME280;47203;48.428;11.974;2023-06-04T10:02:30;96939.19;;;26.95;30.54
61324;BME280;47203;48.428;11.974;2023-06-04T10:04:40;96953.19;;;27.04;30.33
61324;BME280;47203;48.428;11.974;2023-06-04T10:06:45;96951.75;;;27.10;30.16
61324;BME280;47203;48.428;11.974;2023-06-04T10:08:51;96940.25;;;27.17;29.94
61324;BME280;47203;48.428;11.974;2023-06-04T10:10:59;96943.41;;;27.23;30.27
61324;BME280;47203;48.428;11.974;2023-06-04T10:13:07;96945.81;;;27.31;29.65
61324;BME280;47203;48.428;11.974;2023-06-04T10:15:17;96944.78;;;27.40;29.44
61324;BME280;47203;48.428;11.974;2023-06-04T10:17:22;96946.81;;;27.50;30.06
61324;BME280;47203;48.428;11.974;2023-06-04T10:19:30;96943.41;;;27.57;29.79
61324;BME280;47203;48.428;11.974;2023-06-04T10:21:39;96935.75;;;27.62;29.19
61324;BME280;47203;48.428;11.974;2023-06-04T10:23:44;96945.13;;;27.72;29.73
61324;BME280;47203;48.428;11.974;2023-06-04T10:25:52;96943.25;;;27.80;29.20
61324;BME280;47203;48.428;11.974;2023-06-04T10:27:57;96944.09;;;27.87;29.46
61324;BME280;47203;48.428;11.974;2023-06-04T10:30:03;96933.31;;;27.95;28.86
61324;BME280;47203;48.428;11.974;2023-06-04T10:32:09;96938.06;;;28.01;28.69
61324;BME280;47203;48.428;11.974;2023-06-04T10:34:14;96939.69;;;28.10;28.28
61324;BME280;47203;48.428;11.974;2023-06-04T10:36:20;96937.03;;;28.17;27.94
61324;BME280;47203;48.428;11.974;2023-06-04T10:38:28;96932.81;;;28.23;28.39
61324;BME280;47203;48.428;11.974;2023-06-04T10:40:33;96944.84;;;28.29;28.31
61324;BME280;47203;48.428;11.974;2023-06-04T10:42:40;96934.84;;;28.37;27.63
61324;BME280;47203;48.428;11.974;2023-06-04T10:44:46;96940.31;;;28.44;27.83
61324;BME280;47203;48.428;11.974;2023-06-04T10:46:51;96938.81;;;28.50;28.14
61324;BME280;47203;48.428;11.974;2023-06-04T10:48:56;96941.16;;;28.55;27.46
61324;BME280;47203;48.428;11.974;2023-06-04T10:51:01;96940.41;;;28.59;27.10
61324;BME280;47203;48.428;11.974;2023-06-04T10:53:07;96940.03;;;28.60;27.51
61324;BME280;47203;48.428;11.974;2023-06-04T10:55:15;96943.97;;;28.66;26.81
61324;BME280;47203;48.428;11.974;2023-06-04T10:57:20;96940.09;;;28.67;26.70
61324;BME280;47203;48.428;11.974;2023-06-04T10:59:25;96932.00;;;28.71;26.46
61324;BME280;47203;48.428;11.974;2023-06-04T11:01:30;96938.59;;;28.73;26.30